createdAt,value
2023-03-15T00:03:25.597Z,4.84
2023-03-15T00:08:28.359Z,5.62
2023-03-15T00:13:32.136Z,4.83
2023-03-15T00:18:36.271Z,5.09
2023-03-15T00:23:40.644Z,4.65
2023-03-15T00:28:47.928Z,5.77
2023-03-15T00:33:54.732Z,5.31
2023-03-15T00:38:58.911Z,6.09
2023-03-15T00:44:01.847Z,5.94
2023-03-15T00:49:07.105Z,5.75
2023-03-15T00:54:13.885Z,5.87
2023-03-15T00:59:16.754Z,6.14
2023-03-15T01:04:21.065Z,5.93
2023-03-15T01:09:23.860Z,5.45
2023-03-15T01:14:26.674Z,5.48
2023-03-15T01:19:30.851Z,5.32
2023-03-15T01:24:33.687Z,5.29
2023-03-15T01:29:36.607Z,5.45
2023-03-15T01:34:43.196Z,5.81
2023-03-15T01:39:46.562Z,5.54
2023-03-15T01:44:52.300Z,5.63
2023-03-15T01:50:02.593Z,5.75
2023-03-15T01:55:10.133Z,5.08
2023-03-15T02:00:20.276Z,5.40
2023-03-15T02:05:36.895Z,5.73
2023-03-15T02:10:44.492Z,5.18
2023-03-15T02:15:48.729Z,5.26
2023-03-15T02:21:09.478Z,5.45
2023-03-15T02:26:22.025Z,5.70
2023-03-15T02:31:26.282Z,5.25
2023-03-15T02:36:31.960Z,5.06
2023-03-15T02:41:40.220Z,5.42
2023-03-15T02:46:47.034Z,5.98
2023-03-15T02:51:49.834Z,5.79
2023-03-15T02:56:53.324Z,5.37
2023-03-15T03:01:57.447Z,6.03
2023-03-15T03:07:00.663Z,6.57
2023-03-15T03:12:13.032Z,6.34
2023-03-15T03:17:17.380Z,6.40
2023-03-15T03:22:24.438Z,5.88
2023-03-15T03:27:27.293Z,6.48
2023-03-15T03:32:32.046Z,6.02
2023-03-15T03:37:35.821Z,6.16
2023-03-15T03:42:47.140Z,6.47
2023-03-15T03:47:52.833Z,6.21
2023-03-15T03:52:56.233Z,5.75
2023-03-15T03:58:03.507Z,5.97
2023-03-15T04:03:27.376Z,5.73
2023-03-15T04:08:38.314Z,6.18
2023-03-15T04:13:42.621Z,6.32
2023-03-15T04:18:47.769Z,6.36
2023-03-15T04:23:50.692Z,6.06
2023-03-15T04:29:14.501Z,6.06
2023-03-15T04:34:38.677Z,6.80
2023-03-15T04:39:53.370Z,6.08
2023-03-15T04:45:19.317Z,5.89
2023-03-15T04:50:42.045Z,5.84
2023-03-15T04:56:10.806Z,5.79
2023-03-15T05:01:14.780Z,6.28
2023-03-15T05:06:32.875Z,6.08
2023-03-15T05:11:49.182Z,6.35
2023-03-15T05:17:10.871Z,6.06
2023-03-15T05:22:45.620Z,6.30
2023-03-15T05:28:07.079Z,6.54
2023-03-15T05:33:17.983Z,6.16
2023-03-15T05:39:03.077Z,6.67
2023-03-15T05:44:33.554Z,6.33
2023-03-15T05:49:57.772Z,6.14
2023-03-15T05:55:20.402Z,5.84
2023-03-15T06:00:33.291Z,6.41
2023-03-15T06:05:42.770Z,6.60
2023-03-15T06:10:52.090Z,6.98
2023-03-15T06:15:54.906Z,6.85
2023-03-15T06:20:58.237Z,6.21
2023-03-15T06:26:02.494Z,6.25
2023-03-15T06:31:09.164Z,6.81
2023-03-15T06:36:19.175Z,6.88
2023-03-15T06:41:23.419Z,7.13
2023-03-15T06:46:31.986Z,8.23
2023-03-15T06:51:35.008Z,8.83
2023-03-15T06:56:39.223Z,8.50
2023-03-15T07:01:42.093Z,8.83
2023-03-15T07:06:44.854Z,9.75
2023-03-15T07:11:49.144Z,11.16
2023-03-15T07:16:51.888Z,10.27
2023-03-15T07:21:54.588Z,8.60
2023-03-15T07:26:58.725Z,7.04
2023-03-15T07:32:01.623Z,6.03
2023-03-15T07:37:04.627Z,6.82
2023-03-15T07:42:09.582Z,6.92
2023-03-15T07:47:17.390Z,7.39
2023-03-15T07:52:21.353Z,8.24
2023-03-15T07:57:27.684Z,7.44
2023-03-15T08:02:31.464Z,7.91
2023-03-15T08:07:34.170Z,8.02
2023-03-15T08:12:39.936Z,8.60
2023-03-15T08:17:43.525Z,8.58
2023-03-15T08:22:46.547Z,8.01
2023-03-15T08:27:51.168Z,8.67
2023-03-15T08:32:53.981Z,8.82
2023-03-15T08:37:57.085Z,8.95
2023-03-15T08:43:01.222Z,9.36
2023-03-15T08:48:04.021Z,8.51
2023-03-15T08:53:06.739Z,9.09
2023-03-15T08:58:12.831Z,8.55
2023-03-15T09:03:16.616Z,10.78
2023-03-15T09:08:21.429Z,10.71
2023-03-15T09:13:26.909Z,9.86
2023-03-15T09:18:29.829Z,8.51
2023-03-15T09:23:32.548Z,8.09
2023-03-15T09:28:36.622Z,7.62
2023-03-15T09:33:39.458Z,7.79
2023-03-15T09:38:43.805Z,8.61
2023-03-15T09:44:12.692Z,9.10
2023-03-15T09:49:21.245Z,10.16
2023-03-15T09:54:29.257Z,10.37
2023-03-15T09:59:35.723Z,10.84
2023-03-15T10:04:40.631Z,10.29
2023-03-15T10:09:44.277Z,8.75
2023-03-15T10:15:02.822Z,8.69
2023-03-15T10:20:12.034Z,8.15
2023-03-15T10:25:19.397Z,7.90
2023-03-15T10:30:25.786Z,8.91
2023-03-15T10:35:28.669Z,9.51
2023-03-15T10:40:43.904Z,8.99
2023-03-15T10:46:00.116Z,9.65
2023-03-15T10:51:06.859Z,8.98
2023-03-15T10:56:25.814Z,9.62
2023-03-15T11:01:34.596Z,9.33
2023-03-15T11:06:42.800Z,9.77
2023-03-15T11:11:54.591Z,9.35
2023-03-15T11:17:00.856Z,9.40
2023-03-15T11:22:04.052Z,10.20
2023-03-15T11:27:13.883Z,10.26
2023-03-15T11:32:21.811Z,10.89
2023-03-15T11:37:29.284Z,9.83
2023-03-15T11:42:36.694Z,10.61
2023-03-15T11:47:48.464Z,10.11
2023-03-15T11:52:52.736Z,8.82
2023-03-15T11:57:57.865Z,8.67
2023-03-15T12:03:35.307Z,8.11
2023-03-15T12:08:46.252Z,8.25
2023-03-15T12:14:05.348Z,8.26
2023-03-15T12:19:16.192Z,8.81
2023-03-15T12:24:24.962Z,9.29
2023-03-15T12:29:30.098Z,9.17
2023-03-15T12:34:46.913Z,8.10
2023-03-15T12:39:52.474Z,8.40
2023-03-15T12:44:55.255Z,9.03
2023-03-15T12:50:38.215Z,8.86
2023-03-15T12:55:41.935Z,9.07
2023-03-15T13:00:45.798Z,9.52
2023-03-15T13:06:03.927Z,10.23
2023-03-15T13:11:21.256Z,10.26
2023-03-15T13:16:35.545Z,9.75
2023-03-15T13:21:52.452Z,9.42
2023-03-15T13:26:59.791Z,10.35
2023-03-15T13:32:09.850Z,10.19
2023-03-15T13:37:17.053Z,10.17
2023-03-15T13:42:23.866Z,10.64
2023-03-15T13:47:27.455Z,10.39
2023-03-15T13:52:31.586Z,10.02
2023-03-15T13:57:34.984Z,9.64
2023-03-15T14:02:45.586Z,9.25
2023-03-15T14:07:51.142Z,9.43
2023-03-15T14:12:55.327Z,9.60
2023-03-15T14:18:02.992Z,8.44
2023-03-15T14:23:12.345Z,8.17
2023-03-15T14:28:17.275Z,8.56
2023-03-15T14:33:28.447Z,8.40
2023-03-15T14:38:37.603Z,8.45
2023-03-15T14:43:40.388Z,8.84
2023-03-15T14:48:43.460Z,10.05
2023-03-15T14:53:50.003Z,9.66
2023-03-15T14:58:54.138Z,9.22
2023-03-15T15:03:59.742Z,9.09
2023-03-15T15:09:06.012Z,9.08
2023-03-15T15:14:13.865Z,8.64
2023-03-15T15:19:16.884Z,9.12
2023-03-15T15:24:23.298Z,9.56
2023-03-15T15:29:25.996Z,9.76
2023-03-15T15:34:29.192Z,9.35
2023-03-15T15:39:33.341Z,10.00
2023-03-15T15:44:36.196Z,9.85
2023-03-15T15:49:41.351Z,9.10
2023-03-15T15:54:47.735Z,8.85
2023-03-15T15:59:50.491Z,9.85
2023-03-15T16:04:54.897Z,9.35
2023-03-15T16:10:00.717Z,9.15
2023-03-15T16:15:03.736Z,9.24
2023-03-15T16:20:09.118Z,9.52
2023-03-15T16:25:20.249Z,8.92
2023-03-15T16:30:24.870Z,9.10
2023-03-15T16:35:32.386Z,9.58
2023-03-15T16:40:42.131Z,9.26
2023-03-15T16:45:44.895Z,8.94
2023-03-15T16:50:48.203Z,8.83
2023-03-15T16:55:52.358Z,8.95
2023-03-15T17:00:55.974Z,8.87
2023-03-15T17:05:58.804Z,8.65
2023-03-15T17:11:02.899Z,8.88
2023-03-15T17:16:06.590Z,8.49
2023-03-15T17:21:12.895Z,8.19
2023-03-15T17:26:20.385Z,8.43
2023-03-15T17:31:25.568Z,8.05
2023-03-15T17:36:33.893Z,7.78
2023-03-15T17:41:42.558Z,8.45
2023-03-15T17:46:45.381Z,8.08
2023-03-15T17:51:48.235Z,8.02
2023-03-15T17:56:52.492Z,7.92
2023-03-15T18:01:55.313Z,7.86
2023-03-15T18:06:58.061Z,7.78
2023-03-15T18:12:02.286Z,7.84
2023-03-15T18:17:05.278Z,7.49
2023-03-15T18:22:08.052Z,7.75
2023-03-15T18:27:12.877Z,7.39
2023-03-15T18:32:15.686Z,7.64
2023-03-15T18:37:18.551Z,7.49
2023-03-15T18:42:22.638Z,7.63
2023-03-15T18:47:25.481Z,7.18
2023-03-15T18:52:28.429Z,7.18
2023-03-15T18:57:32.590Z,7.33
2023-03-15T19:02:35.352Z,7.47
2023-03-15T19:07:38.599Z,7.20
2023-03-15T19:12:44.787Z,7.33
2023-03-15T19:17:49.386Z,7.30
2023-03-15T19:22:53.230Z,7.29
2023-03-15T19:27:57.966Z,7.69
2023-03-15T19:33:01.081Z,7.36
2023-03-15T19:38:04.097Z,7.60
2023-03-15T19:43:10.170Z,7.70
2023-03-15T19:48:14.774Z,7.75
2023-03-15T19:53:19.120Z,7.68
2023-03-15T19:58:23.459Z,7.71
2023-03-15T20:03:26.692Z,7.28
2023-03-15T20:08:29.438Z,7.47
2023-03-15T20:13:33.791Z,7.51
2023-03-15T20:18:36.518Z,7.14
2023-03-15T20:23:39.451Z,7.12
2023-03-15T20:28:45.106Z,7.02
2023-03-15T20:33:50.683Z,7.25
2023-03-15T20:38:53.770Z,7.02
2023-03-15T20:43:58.345Z,7.04
2023-03-15T20:49:01.159Z,6.94
2023-03-15T20:54:07.049Z,6.92
2023-03-15T20:59:12.121Z,6.83
2023-03-15T21:04:16.049Z,6.79
2023-03-15T21:09:18.929Z,7.04
2023-03-15T21:14:23.058Z,7.18
2023-03-15T21:19:25.820Z,6.99
2023-03-15T21:24:31.885Z,7.02
2023-03-15T21:29:36.226Z,6.65
2023-03-15T21:34:39.207Z,6.93
2023-03-15T21:39:42.015Z,7.08
2023-03-15T21:44:46.150Z,7.17
2023-03-15T21:49:49.045Z,7.19
2023-03-15T21:54:51.778Z,7.04
2023-03-15T21:59:55.926Z,6.90
2023-03-15T22:04:58.904Z,6.82
2023-03-15T22:10:01.733Z,6.83
2023-03-15T22:15:07.604Z,6.89
2023-03-15T22:20:16.379Z,6.82
2023-03-15T22:25:19.269Z,6.76
2023-03-15T22:30:24.071Z,6.62
2023-03-15T22:35:27.087Z,6.46
2023-03-15T22:40:29.895Z,6.37
2023-03-15T22:45:34.407Z,6.43
2023-03-15T22:50:37.110Z,6.41
2023-03-15T22:55:39.813Z,6.39
2023-03-15T23:00:44.974Z,6.63
2023-03-15T23:05:48.105Z,6.48
2023-03-15T23:10:51.306Z,6.44
2023-03-15T23:15:55.481Z,6.24
2023-03-15T23:21:05.401Z,6.11
2023-03-15T23:26:08.198Z,6.20
2023-03-15T23:31:12.302Z,6.09
2023-03-15T23:36:15.381Z,6.10
2023-03-15T23:41:18.173Z,6.10
2023-03-15T23:46:36.028Z,6.06
2023-03-15T23:51:39.061Z,5.88
2023-03-15T23:56:41.763Z,5.88
